Time;durP1;ratioP1;P1;durP2;ratioP2;P2;SDS_P1;SDS_P2;PMS_P1;PMS_P2;Temp;Humidity;BMP_temperature;BMP_pressure;BME280_temperature;BME280_humidity;BME280_pressure;Samples;Min_cycle;Max_cycle;Signal;HPM_P1;HPM_P2
2021/04/05 00:01:45;;;;;;;4.13;1.90;;;14.70;35.90;;;;;;6225243;28;20527;-78
2021/04/05 00:04:46;;;;;;;4.32;1.63;;;14.60;36.00;;;;;;6268207;28;20463;-76
2021/04/05 00:07:49;;;;;;;3.15;1.38;;;14.60;36.10;;;;;;6285001;28;20097;-77
2021/04/05 00:10:52;;;;;;;4.30;1.48;;;14.50;36.10;;;;;;6268488;28;20525;-76
2021/04/05 00:13:53;;;;;;;4.03;1.90;;;14.50;36.40;;;;;;6284569;28;20115;-79
2021/04/05 00:16:54;;;;;;;5.10;1.90;;;14.40;36.60;;;;;;6284631;28;20054;-77
2021/04/05 00:19:55;;;;;;;5.72;1.42;;;14.40;36.80;;;;;;6260050;28;20033;-79
2021/04/05 00:22:56;;;;;;;3.05;1.45;;;14.30;37.00;;;;;;6244304;28;20131;-78
2021/04/05 00:25:57;;;;;;;3.78;1.40;;;14.30;37.30;;;;;;6296415;28;20039;-77
2021/04/05 00:28:58;;;;;;;5.32;1.52;;;14.20;37.40;;;;;;6267855;28;20025;-77
2021/04/05 00:31:58;;;;;;;9.77;2.05;;;14.10;37.50;;;;;;6268742;28;20040;-79
2021/04/05 00:34:59;;;;;;;5.10;1.40;;;14.10;37.60;;;;;;6258893;28;20124;-77
2021/04/05 00:38:03;;;;;;;3.95;1.45;;;14.10;37.70;;;;;;6297214;28;20048;-77
2021/04/05 00:41:15;;;;;;;2.95;1.45;;;14.00;37.70;;;;;;6258749;28;20042;-77
2021/04/05 00:44:16;;;;;;;1.98;1.08;;;14.00;37.70;;;;;;6288539;28;20033;-78
2021/04/05 00:47:17;;;;;;;3.38;1.52;;;14.00;37.70;;;;;;6244181;28;20025;-78
2021/04/05 00:50:47;;;;;;;9.18;1.40;;;13.90;37.60;;;;;;6242982;28;20033;-77
2021/04/05 00:53:49;;;;;;;4.32;1.40;;;13.90;37.90;;;;;;6274196;28;20084;-77
2021/04/05 00:56:50;;;;;;;6.50;1.77;;;13.90;37.80;;;;;;6261241;28;20044;-77
2021/04/05 00:59:51;;;;;;;7.93;2.00;;;13.80;37.90;;;;;;6263447;28;20033;-77
2021/04/05 01:02:53;;;;;;;5.22;1.75;;;13.80;38.00;;;;;;6274548;28;20043;-77
2021/04/05 01:06:01;;;;;;;4.13;1.60;;;13.80;37.90;;;;;;6239907;28;20527;-77
2021/04/05 01:09:04;;;;;;;8.70;1.70;;;13.70;37.90;;;;;;6256433;28;20458;-76
2021/04/05 01:12:07;;;;;;;2.65;1.58;;;13.70;38.00;;;;;;6274400;28;20112;-78
2021/04/05 01:15:12;;;;;;;4.43;1.80;;;13.70;38.10;;;;;;6281135;28;20032;-78
2021/04/05 01:18:14;;;;;;;5.38;1.50;;;13.70;38.10;;;;;;6269805;28;20032;-77
2021/04/05 01:21:15;;;;;;;3.85;1.70;;;13.70;38.10;;;;;;6268301;28;20029;-76
2021/04/05 01:24:16;;;;;;;6.72;1.63;;;13.70;38.20;;;;;;6279488;28;20051;-77
2021/04/05 01:27:17;;;;;;;4.10;1.65;;;13.70;38.60;;;;;;6240445;28;20349;-77
2021/04/05 01:30:32;;;;;;;7.47;1.42;;;13.70;39.00;;;;;;6263879;28;20028;-77
2021/04/05 01:33:35;;;;;;;2.78;1.63;;;13.60;39.40;;;;;;6278747;28;20043;-78
2021/04/05 01:36:36;;;;;;;2.85;1.40;;;13.50;39.60;;;;;;6280233;28;20041;-77
2021/04/05 01:39:38;;;;;;;4.57;1.40;;;13.40;39.60;;;;;;6264949;28;20037;-77
2021/04/05 01:42:38;;;;;;;3.40;1.38;;;13.40;39.60;;;;;;6273738;28;20075;-78
2021/04/05 01:45:41;;;;;;;3.10;1.50;;;13.40;39.70;;;;;;6249166;28;20060;-79
2021/04/05 01:48:44;;;;;;;6.95;1.60;;;13.30;39.70;;;;;;6265262;28;20033;-77
2021/04/05 01:51:45;;;;;;;5.15;1.92;;;13.30;39.70;;;;;;6275109;28;20033;-77
2021/04/05 01:54:46;;;;;;;4.97;1.40;;;13.30;39.70;;;;;;6259748;28;20353;-77
2021/04/05 01:57:50;;;;;;;3.13;1.70;;;13.30;39.60;;;;;;6265367;28;20116;-78
2021/04/05 02:00:51;;;;;;;7.72;1.60;;;13.30;39.70;;;;;;6257600;28;20220;-77
2021/04/05 02:03:52;;;;;;;8.73;1.65;;;13.30;39.90;;;;;;6263227;28;20041;-77
2021/04/05 02:06:53;;;;;;;3.25;1.70;;;13.30;40.00;;;;;;6266220;28;20033;-77
2021/04/05 02:09:54;;;;;;;2.42;1.30;;;13.30;40.00;;;;;;6271887;28;20037;-77
2021/04/05 02:12:56;;;;;;;8.18;1.60;;;13.30;40.20;;;;;;6273155;28;20076;-78
2021/04/05 02:15:57;;;;;;;4.35;1.38;;;13.30;40.30;;;;;;6255240;28;20428;-77
2021/04/05 02:18:59;;;;;;;4.45;1.98;;;13.30;40.30;;;;;;6254736;28;20112;-77
2021/04/05 02:22:00;;;;;;;1.77;1.13;;;13.20;40.30;;;;;;6255502;28;20444;-77
2021/04/05 02:25:02;;;;;;;2.72;1.33;;;13.20;40.40;;;;;;6254988;28;20051;-77
2021/04/05 02:28:04;;;;;;;4.30;1.50;;;13.20;40.50;;;;;;6272601;28;20037;-77
2021/04/05 02:31:07;;;;;;;5.20;1.70;;;13.20;40.50;;;;;;6255353;28;20037;-76
2021/04/05 02:34:12;;;;;;;4.38;1.70;;;13.20;40.60;;;;;;6263060;28;20036;-76
2021/04/05 02:37:14;;;;;;;5.65;1.83;;;13.10;40.50;;;;;;6269284;28;20090;-77
2021/04/05 02:40:15;;;;;;;1.80;1.23;;;13.10;40.60;;;;;;6267924;28;20135;-77
2021/04/05 02:43:17;;;;;;;3.70;1.50;;;13.10;40.70;;;;;;6241811;28;20043;-77
2021/04/05 02:46:30;;;;;;;1.63;1.17;;;13.00;41.00;;;;;;6272963;28;20518;-77
2021/04/05 02:49:32;;;;;;;3.67;1.73;;;13.00;41.10;;;;;;6251295;28;20360;-77
2021/04/05 02:52:35;;;;;;;2.75;1.63;;;12.90;41.10;;;;;;6274328;28;20048;-79
2021/04/05 02:55:37;;;;;;;6.15;1.77;;;12.90;41.10;;;;;;6269006;28;20029;-77
2021/04/05 02:58:46;;;;;;;5.55;2.15;;;12.90;41.20;;;;;;6270244;28;20041;-77
2021/04/05 03:01:48;;;;;;;2.95;1.58;;;12.80;41.30;;;;;;6251108;28;20116;-77
2021/04/05 03:04:50;;;;;;;5.55;1.80;;;12.80;41.30;;;;;;6243340;28;20084;-77
2021/04/05 03:07:59;;;;;;;4.07;1.77;;;12.80;41.80;;;;;;6261617;28;20041;-77
2021/04/05 03:11:03;;;;;;;5.22;1.88;;;12.80;41.60;;;;;;6269098;28;20413;-77
2021/04/05 03:14:08;;;;;;;2.85;1.50;;;12.80;41.60;;;;;;6284197;28;20106;-77
2021/04/05 03:17:09;;;;;;;2.80;1.35;;;12.80;41.50;;;;;;6287985;28;20044;-77
2021/04/05 03:20:14;;;;;;;8.25;1.30;;;12.80;41.60;;;;;;6242357;28;20459;-77
2021/04/05 03:23:16;;;;;;;3.17;1.48;;;12.70;41.50;;;;;;6255499;28;20029;-78
2021/04/05 03:26:17;;;;;;;4.57;1.85;;;12.70;41.70;;;;;;6290390;28;20036;-77
2021/04/05 03:29:39;;;;;;;3.03;1.60;;;12.70;41.80;;;;;;6257941;28;20033;-77
2021/04/05 03:32:43;;;;;;;2.28;1.50;;;12.70;41.90;;;;;;6255521;28;20063;-77
2021/04/05 03:35:51;;;;;;;3.60;1.50;;;12.60;41.90;;;;;;6238159;28;20072;-77
2021/04/05 03:38:53;;;;;;;2.75;1.83;;;12.50;42.00;;;;;;6271170;28;20025;-76
2021/04/05 03:42:09;;;;;;;3.95;1.80;;;12.50;42.20;;;;;;6276800;28;20534;-77
2021/04/05 03:45:23;;;;;;;2.53;1.20;;;12.50;42.70;;;;;;6254754;28;20045;-78
2021/04/05 03:48:43;;;;;;;8.30;1.58;;;12.40;42.90;;;;;;6275860;28;20044;-77
2021/04/05 03:51:49;;;;;;;3.20;1.48;;;12.30;43.10;;;;;;6251722;28;20067;-77
2021/04/05 03:54:58;;;;;;;11.57;1.67;;;12.30;43.60;;;;;;6262025;28;20033;-77
2021/04/05 03:58:01;;;;;;;3.95;1.70;;;12.20;43.60;;;;;;6251385;28;20051;-77
2021/04/05 04:01:07;;;;;;;3.28;1.73;;;12.20;43.90;;;;;;6270830;28;20037;-76
2021/04/05 04:04:13;;;;;;;3.28;1.60;;;12.10;43.90;;;;;;6292536;28;20056;-77
2021/04/05 04:07:40;;;;;;;2.20;1.45;;;12.10;43.80;;;;;;6247825;28;20044;-77
2021/04/05 04:10:38;;;;;;;2.75;1.40;;;12.10;43.80;;;;;;6280030;28;20090;-76
2021/04/05 04:13:43;;;;;;;5.75;1.33;;;12.10;43.70;;;;;;6265749;28;20040;-77
2021/04/05 04:16:47;;;;;;;5.43;1.85;;;12.10;43.80;;;;;;6265488;28;20120;-76
2021/04/05 04:19:48;;;;;;;4.03;1.85;;;12.20;44.00;;;;;;6265494;28;20068;-77
2021/04/05 04:22:49;;;;;;;4.13;1.60;;;12.20;44.10;;;;;;6274295;28;20040;-77
2021/04/05 04:25:53;;;;;;;6.00;2.03;;;12.20;44.40;;;;;;6258632;28;20371;-78
2021/04/05 04:28:54;;;;;;;4.95;1.73;;;12.10;44.60;;;;;;6293059;28;20041;-77
2021/04/05 04:31:55;;;;;;;3.78;1.45;;;12.10;44.70;;;;;;6275098;28;20110;-77
2021/04/05 04:34:56;;;;;;;4.85;1.73;;;12.10;44.80;;;;;;6261069;28;20089;-77
2021/04/05 04:37:59;;;;;;;3.25;1.67;;;12.10;44.90;;;;;;6282395;28;20070;-78
2021/04/05 04:41:00;;;;;;;4.13;1.83;;;12.00;45.10;;;;;;6255204;28;20482;-78
2021/04/05 04:44:03;;;;;;;2.38;1.30;;;12.00;45.50;;;;;;6288247;28;20033;-78
2021/04/05 04:47:05;;;;;;;14.70;2.60;;;11.90;45.60;;;;;;6287915;28;20056;-78
2021/04/05 04:50:06;;;;;;;4.75;1.77;;;11.90;46.10;;;;;;6257867;28;20041;-78
2021/04/05 04:53:07;;;;;;;3.95;1.77;;;11.90;46.20;;;;;;6253454;28;20397;-78
2021/04/05 04:56:08;;;;;;;4.38;1.75;;;11.80;46.10;;;;;;6273700;28;20040;-77
2021/04/05 04:59:11;;;;;;;4.25;1.70;;;11.80;46.30;;;;;;6274172;28;20032;-79
2021/04/05 05:02:12;;;;;;;3.50;1.90;;;11.80;46.30;;;;;;6258234;28;20040;-77
2021/04/05 05:05:15;;;;;;;5.55;2.00;;;11.80;46.50;;;;;;6279632;28;20431;-77
2021/04/05 05:08:19;;;;;;;3.63;1.60;;;11.70;46.50;;;;;;6280097;28;20052;-78
2021/04/05 05:11:21;;;;;;;2.25;1.55;;;11.60;46.70;;;;;;6267808;28;20028;-77
2021/04/05 05:14:22;;;;;;;5.35;2.17;;;11.60;46.70;;;;;;6263107;28;20486;-77
2021/04/05 05:17:24;;;;;;;3.38;2.15;;;11.50;46.70;;;;;;6275984;28;20045;-78
2021/04/05 05:20:26;;;;;;;3.83;2.22;;;11.50;46.80;;;;;;6257037;28;20057;-78
2021/04/05 05:23:30;;;;;;;7.00;1.90;;;11.50;46.70;;;;;;6262571;28;20041;-76
2021/04/05 05:26:35;;;;;;;8.68;2.25;;;11.50;46.70;;;;;;6266485;28;20033;-78
2021/04/05 05:29:37;;;;;;;6.15;2.25;;;11.50;46.50;;;;;;6280206;28;20123;-78
2021/04/05 05:32:39;;;;;;;4.10;1.90;;;11.50;46.50;;;;;;6264947;28;20032;-77
2021/04/05 05:35:41;;;;;;;4.18;1.92;;;11.50;46.50;;;;;;6298115;28;20032;-77
2021/04/05 05:38:42;;;;;;;6.18;1.92;;;11.60;46.30;;;;;;6256032;28;20055;-78
2021/04/05 05:42:10;;;;;;;3.90;1.90;;;11.50;46.20;;;;;;6241241;28;20052;-77
2021/04/05 05:45:18;;;;;;;9.52;2.10;;;11.50;46.10;;;;;;6261521;28;20051;-77
2021/04/05 05:48:22;;;;;;;10.00;2.40;;;11.50;45.90;;;;;;6268209;28;20036;-77
2021/04/05 05:51:58;;;;;;;4.55;2.03;;;11.50;45.90;;;;;;6272467;28;22746;-79
2021/04/05 05:55:30;;;;;;;4.00;1.75;;;11.40;45.90;;;;;;6257951;28;20466;-78
2021/04/05 05:59:00;;;;;;;4.35;1.80;;;11.40;45.90;;;;;;6231939;28;20060;-78
2021/04/05 06:02:34;;;;;;;5.57;1.83;;;11.40;45.90;;;;;;6243592;28;20048;-77
2021/04/05 06:05:40;;;;;;;6.22;2.08;;;11.30;45.80;;;;;;6269241;28;20449;-77
2021/04/05 06:09:16;;;;;;;7.53;2.40;;;11.40;45.80;;;;;;6265222;28;20459;-78
2021/04/05 06:12:49;;;;;;;7.05;2.50;;;11.40;45.90;;;;;;6296859;28;20048;-78
2021/04/05 06:16:12;;;;;;;3.65;1.92;;;11.40;46.00;;;;;;6278595;28;20037;-77
2021/04/05 06:19:51;;;;;;;6.45;2.13;;;11.40;46.00;;;;;;6229691;28;20040;-77
2021/04/05 06:23:06;;;;;;;6.07;3.08;;;11.50;46.00;;;;;;6260657;28;20147;-77
2021/04/05 06:26:25;;;;;;;11.73;2.72;;;11.50;45.90;;;;;;6262113;28;20448;-77
2021/04/05 06:29:52;;;;;;;5.55;2.28;;;11.60;45.90;;;;;;6250031;28;20033;-77
2021/04/05 06:33:11;;;;;;;4.20;2.13;;;11.70;46.00;;;;;;6275932;28;20039;-77
2021/04/05 06:36:19;;;;;;;;;;;11.80;46.10;;;;;;6255932;28;20039;-77
2021/04/05 06:39:26;;;;;;;2.63;1.55;;;11.80;46.00;;;;;;6247367;28;19924;-78
2021/04/05 06:42:42;;;;;;;3.17;2.08;;;11.90;45.70;;;;;;6261134;28;20041;-77
2021/04/05 06:46:10;;;;;;;3.92;2.03;;;12.00;45.50;;;;;;6284885;28;20040;-77
2021/04/05 06:49:37;;;;;;;4.60;1.63;;;12.10;45.10;;;;;;6236840;28;20060;-77
2021/04/05 06:53:03;;;;;;;8.65;2.00;;;12.20;44.70;;;;;;6250643;28;20544;-78
2021/04/05 06:56:41;;;;;;;3.95;2.10;;;12.30;44.40;;;;;;6267507;28;20033;-79
2021/04/05 07:00:00;;;;;;;6.40;2.53;;;12.30;44.10;;;;;;6158316;28;20042;-77
2021/04/05 07:03:25;;;;;;;6.20;2.25;;;12.40;43.90;;;;;;6167587;28;20047;-78
2021/04/05 07:06:47;;;;;;;8.93;2.80;;;12.50;43.80;;;;;;6191483;28;20146;-76
2021/04/05 07:10:03;;;;;;;3.70;1.98;;;12.60;44.10;;;;;;6117194;29;20130;-77
2021/04/05 07:13:18;;;;;;;5.18;2.55;;;12.70;44.70;;;;;;6101691;29;20036;-77
2021/04/05 07:16:39;;;;;;;9.27;2.70;;;12.70;44.90;;;;;;6095170;29;20043;-77
2021/04/05 07:19:51;;;;;;;3.63;2.42;;;12.80;44.90;;;;;;6043233;29;20043;-78
2021/04/05 07:23:07;;;;;;;9.48;2.97;;;12.90;44.90;;;;;;6079736;29;20472;-77
2021/04/05 07:26:16;;;;;;;5.68;3.20;;;12.90;44.50;;;;;;6098263;29;20068;-77
2021/04/05 07:29:35;;;;;;;6.75;3.47;;;13.00;44.40;;;;;;6098313;29;20100;-78
2021/04/05 07:32:46;;;;;;;5.68;3.63;;;13.00;44.20;;;;;;6096991;29;20047;-77
2021/04/05 07:36:14;;;;;;;8.80;3.83;;;13.10;44.00;;;;;;6095185;29;20032;-76
2021/04/05 07:39:52;;;;;;;6.25;3.33;;;13.30;43.70;;;;;;6096640;29;20046;-77
2021/04/05 07:43:10;;;;;;;8.40;3.70;;;13.40;43.30;;;;;;6093520;29;20032;-78
2021/04/05 07:46:22;;;;;;;5.43;3.53;;;13.60;42.80;;;;;;6144541;28;20055;-78
2021/04/05 07:49:36;;;;;;;8.88;2.90;;;13.70;42.60;;;;;;6206952;28;20029;-77
2021/04/05 07:53:04;;;;;;;7.05;2.78;;;13.90;42.40;;;;;;6210554;28;20050;-78
2021/04/05 07:56:13;;;;;;;7.05;3.42;;;14.10;42.20;;;;;;6248424;28;20131;-78
2021/04/05 07:59:34;;;;;;;7.22;3.03;;;14.20;41.90;;;;;;6284406;28;20119;-78
2021/04/05 08:03:21;;;;;;;7.50;2.95;;;14.40;41.60;;;;;;6305311;28;20039;-78
2021/04/05 08:06:34;;;;;;;10.93;2.58;;;14.50;41.30;;;;;;6156976;28;20039;-78
2021/04/05 08:09:50;;;;;;;7.40;3.42;;;14.50;41.20;;;;;;6150378;28;20141;-78
2021/04/05 08:13:35;;;;;;;5.22;2.78;;;14.60;41.20;;;;;;6150270;28;20395;-78
2021/04/05 08:16:45;;;;;;;6.97;3.30;;;14.60;41.20;;;;;;6148047;28;20035;-77
2021/04/05 08:20:08;;;;;;;6.15;3.25;;;14.70;41.10;;;;;;6163307;28;20397;-78
2021/04/05 08:23:14;;;;;;;6.40;2.70;;;14.80;41.00;;;;;;6173309;28;20425;-78
2021/04/05 08:26:27;;;;;;;4.88;2.97;;;14.90;40.80;;;;;;6141015;28;20114;-78
2021/04/05 08:29:45;;;;;;;12.05;3.45;;;15.00;40.70;;;;;;6152157;28;20061;-78
2021/04/05 08:32:55;;;;;;;4.30;2.85;;;15.10;40.50;;;;;;6132819;28;20317;-80
2021/04/05 08:36:10;;;;;;;8.85;3.40;;;15.30;40.30;;;;;;6184938;28;20052;-78
2021/04/05 08:39:58;;;;;;;5.43;3.20;;;15.30;40.20;;;;;;6232125;28;20029;-79
2021/04/05 08:43:26;;;;;;;5.47;3.00;;;15.30;40.00;;;;;;6252495;28;20033;-77
2021/04/05 08:46:32;;;;;;;8.68;2.80;;;15.60;39.90;;;;;;6265475;28;20029;-77
2021/04/05 08:49:36;;;;;;;6.72;3.20;;;15.80;39.70;;;;;;6270384;28;20025;-78
2021/04/05 08:52:45;;;;;;;6.70;2.70;;;16.10;39.40;;;;;;6254203;28;20043;-77
2021/04/05 08:55:47;;;;;;;6.88;2.90;;;16.20;39.00;;;;;;6259573;28;20033;-77
2021/04/05 08:58:52;;;;;;;7.20;3.03;;;16.40;38.40;;;;;;6291939;28;20029;-78
2021/04/05 09:02:21;;;;;;;7.68;3.20;;;16.50;38.30;;;;;;6256120;28;20049;-78
2021/04/05 09:05:27;;;;;;;6.75;3.17;;;16.70;38.20;;;;;;6279430;28;20048;-78
2021/04/05 09:08:30;;;;;;;6.53;3.15;;;16.80;37.90;;;;;;6255936;28;20471;-79
2021/04/05 09:11:38;;;;;;;9.27;3.20;;;16.90;37.50;;;;;;6295466;28;20375;-77
2021/04/05 09:15:33;;;;;;;6.43;2.83;;;17.00;37.50;;;;;;6266173;28;20167;-76
2021/04/05 09:19:12;;;;;;;5.75;3.38;;;17.10;37.00;;;;;;6195896;28;20041;-77
2021/04/05 09:22:30;;;;;;;7.68;2.70;;;17.20;36.50;;;;;;6220743;28;20045;-77
2021/04/05 09:25:34;;;;;;;8.10;3.60;;;17.20;36.20;;;;;;6219806;28;20354;-77
2021/04/05 09:28:52;;;;;;;6.35;2.65;;;17.30;36.20;;;;;;6163338;28;20045;-78
2021/04/05 09:32:19;;;;;;;7.20;2.33;;;17.40;35.60;;;;;;6197795;28;20104;-78
2021/04/05 09:36:01;;;;;;;6.03;2.83;;;17.40;34.80;;;;;;6183922;28;20049;-79
2021/04/05 09:39:17;;;;;;;4.72;2.47;;;17.40;34.40;;;;;;6205446;28;20133;-78
2021/04/05 09:42:52;;;;;;;3.53;2.28;;;17.50;34.80;;;;;;6186870;28;20033;-78
2021/04/05 09:46:02;;;;;;;8.25;2.40;;;17.50;34.10;;;;;;6118510;29;20043;-78
2021/04/05 09:49:08;;;;;;;3.15;2.10;;;17.60;33.70;;;;;;6125095;28;20055;-77
2021/04/05 09:52:46;;;;;;;5.75;2.53;;;17.60;33.60;;;;;;6140134;29;20492;-78
2021/04/05 09:55:54;;;;;;;6.00;2.22;;;17.70;33.40;;;;;;6012967;29;20057;-79
2021/04/05 09:59:02;;;;;;;6.70;2.17;;;17.90;33.10;;;;;;6036250;29;20047;-76
2021/04/05 10:02:05;;;;;;;6.30;2.47;;;18.00;33.00;;;;;;6044149;29;20033;-78
2021/04/05 10:05:09;;;;;;;4.75;2.28;;;18.20;33.10;;;;;;6051058;29;20177;-78
2021/04/05 10:08:37;;;;;;;3.50;1.90;;;18.30;32.70;;;;;;6051253;29;20044;-78
2021/04/05 10:11:44;;;;;;;6.90;2.70;;;18.40;32.30;;;;;;6034139;29;20055;-76
2021/04/05 10:14:45;;;;;;;10.93;1.98;;;18.50;31.80;;;;;;6054150;29;20049;-77
2021/04/05 10:17:51;;;;;;;3.38;1.58;;;18.60;31.30;;;;;;6052976;29;20041;-77
2021/04/05 10:20:53;;;;;;;4.35;1.65;;;18.60;30.90;;;;;;6037381;29;20477;-79
2021/04/05 10:23:57;;;;;;;4.82;1.83;;;18.70;30.60;;;;;;6118911;29;20046;-77
2021/04/05 10:27:01;;;;;;;7.93;1.50;;;18.70;30.20;;;;;;6140035;29;20036;-78
2021/04/05 10:30:05;;;;;;;3.08;1.42;;;18.90;30.10;;;;;;6097702;29;20036;-79
2021/04/05 10:33:16;;;;;;;4.18;1.77;;;19.10;30.00;;;;;;6242927;28;20032;-78
2021/04/05 10:36:22;;;;;;;4.43;1.48;;;19.20;29.90;;;;;;6289611;28;20028;-78
2021/04/05 10:39:30;;;;;;;5.30;1.60;;;19.20;29.40;;;;;;6299335;28;20061;-77
2021/04/05 10:42:48;;;;;;;7.60;1.48;;;19.30;28.80;;;;;;6265977;28;20540;-78
2021/04/05 10:45:57;;;;;;;3.15;1.50;;;19.60;29.10;;;;;;6275481;28;20040;-79
2021/04/05 10:49:09;;;;;;;5.45;1.45;;;20.00;28.20;;;;;;6276728;28;20413;-78
2021/04/05 10:52:19;;;;;;;2.53;1.52;;;20.60;27.40;;;;;;6244611;28;20086;-77
2021/04/05 10:55:26;;;;;;;5.93;1.63;;;21.00;26.90;;;;;;6277754;28;20339;-78
2021/04/05 10:58:42;;;;;;;6.93;1.77;;;21.30;26.50;;;;;;6318150;28;20048;-77
2021/04/05 11:02:00;;;;;;;7.47;1.73;;;21.50;25.90;;;;;;6258526;28;20048;-77
2021/04/05 11:05:12;;;;;;;3.42;1.65;;;21.70;25.60;;;;;;6215014;28;20059;-77
2021/04/05 11:08:27;;;;;;;5.65;1.63;;;22.10;25.30;;;;;;6232149;28;20037;-78
2021/04/05 11:11:31;;;;;;;3.20;1.65;;;22.40;25.30;;;;;;6263584;28;20116;-78
2021/04/05 11:14:33;;;;;;;1.77;1.30;;;22.70;24.60;;;;;;6250336;28;20460;-78
2021/04/05 11:17:39;;;;;;;3.00;1.50;;;23.00;24.80;;;;;;6278584;28;20463;-77
2021/04/05 11:20:42;;;;;;;4.22;1.98;;;23.20;24.20;;;;;;6247583;28;20060;-79
2021/04/05 11:23:44;;;;;;;2.78;1.50;;;23.20;23.90;;;;;;6246022;28;20043;-78
2021/04/05 11:26:46;;;;;;;4.72;2.03;;;23.30;23.80;;;;;;6261174;28;20452;-77
2021/04/05 11:29:51;;;;;;;3.15;1.65;;;23.50;23.80;;;;;;6276185;28;20083;-79
2021/04/05 11:32:53;;;;;;;5.63;1.70;;;23.60;23.70;;;;;;6260453;28;20029;-78
2021/04/05 11:35:56;;;;;;;3.40;1.60;;;23.80;23.80;;;;;;6303887;28;20478;-79
2021/04/05 11:39:00;;;;;;;5.85;1.75;;;24.00;24.20;;;;;;6294350;28;20940;-79
2021/04/05 11:42:05;;;;;;;4.15;1.75;;;24.10;23.70;;;;;;6262561;28;20121;-77
2021/04/05 11:45:07;;;;;;;3.55;1.67;;;24.20;23.30;;;;;;6277469;28;20043;-77
2021/04/05 11:48:27;;;;;;;4.47;1.50;;;24.30;23.20;;;;;;6252606;28;20062;-78
2021/04/05 11:51:37;;;;;;;4.75;1.50;;;24.40;22.90;;;;;;6275554;28;20430;-77
2021/04/05 11:54:51;;;;;;;3.08;1.67;;;24.60;22.60;;;;;;6265101;28;20048;-77
2021/04/05 11:58:11;;;;;;;5.65;1.85;;;24.80;22.60;;;;;;6274096;28;20329;-77
2021/04/05 12:01:16;;;;;;;5.32;2.00;;;25.20;22.40;;;;;;6272233;28;20119;-78
2021/04/05 12:05:04;;;;;;;3.67;1.80;;;25.60;21.90;;;;;;6217749;28;735368;-77
2021/04/05 12:08:18;;;;;;;4.60;1.52;;;26.00;21.50;;;;;;6273396;28;20033;-77
2021/04/05 12:11:22;;;;;;;1.95;1.30;;;26.50;21.00;;;;;;6265480;28;20044;-79
2021/04/05 12:14:27;;;;;;;8.60;1.70;;;27.10;20.60;;;;;;6299588;28;20033;-78
2021/04/05 12:17:30;;;;;;;6.72;1.75;;;27.40;20.10;;;;;;6251962;28;20085;-78
2021/04/05 12:20:33;;;;;;;3.72;1.75;;;27.60;19.80;;;;;;6266751;28;20051;-78
2021/04/05 12:23:34;;;;;;;4.43;1.70;;;27.60;19.90;;;;;;6272503;28;20064;-77
2021/04/05 12:26:35;;;;;;;3.13;1.60;;;27.70;19.80;;;;;;6266731;28;20033;-78
2021/04/05 12:29:38;;;;;;;6.90;1.33;;;28.40;19.60;;;;;;6240928;28;20419;-78
2021/04/05 12:32:44;;;;;;;3.20;1.75;;;29.00;18.90;;;;;;6241419;28;20033;-79
2021/04/05 12:35:50;;;;;;;5.13;1.90;;;29.60;18.20;;;;;;6236354;28;20043;-79
2021/04/05 12:38:52;;;;;;;4.57;1.70;;;29.90;17.70;;;;;;6278565;28;20028;-78
2021/04/05 12:41:53;;;;;;;5.15;1.83;;;29.90;17.80;;;;;;6273062;28;20108;-79
2021/04/05 12:44:56;;;;;;;2.00;1.40;;;30.20;17.50;;;;;;6226612;28;20056;-79
2021/04/05 12:52:20;;;;;;;7.03;1.83;;;30.80;17.10;;;;;;6283616;28;20188;-78
2021/04/05 12:55:22;;;;;;;7.35;1.75;;;31.20;16.60;;;;;;6257698;28;20607;-78
2021/04/05 12:58:28;;;;;;;4.75;1.95;;;31.60;16.30;;;;;;6277076;28;20052;-78
2021/04/05 13:01:49;;;;;;;5.15;1.45;;;31.60;16.00;;;;;;6270171;28;20053;-78
2021/04/05 13:05:05;;;;;;;3.55;1.70;;;31.70;16.00;;;;;;6270743;28;20127;-78
2021/04/05 13:08:17;;;;;;;4.82;1.42;;;31.90;15.70;;;;;;6280630;28;20032;-79
2021/04/05 13:11:26;;;;;;;5.07;1.73;;;31.80;15.70;;;;;;6261403;28;20052;-77
2021/04/05 13:14:35;;;;;;;1.33;1.23;;;31.80;15.60;;;;;;6239778;28;20041;-78
2021/04/05 13:17:39;;;;;;;3.25;1.65;;;31.60;15.70;;;;;;6272653;28;20048;-78
2021/04/05 13:20:46;;;;;;;2.25;1.27;;;31.60;15.40;;;;;;6269065;28;20043;-78
2021/04/05 13:23:52;;;;;;;3.08;1.40;;;31.90;15.20;;;;;;6283624;28;20520;-79
2021/04/05 13:26:57;;;;;;;8.98;1.52;;;32.30;15.10;;;;;;6295424;28;20112;-77
2021/04/05 13:30:00;;;;;;;2.83;1.30;;;32.70;14.70;;;;;;6279365;28;20039;-79
2021/04/05 13:33:05;;;;;;;5.85;1.58;;;32.50;14.50;;;;;;6250767;28;20037;-78
2021/04/05 13:36:15;;;;;;;2.30;1.00;;;32.00;14.50;;;;;;6277429;28;20047;-77
2021/04/05 13:39:24;;;;;;;3.97;1.25;;;31.60;14.70;;;;;;6257601;28;20459;-78
2021/04/05 13:42:27;;;;;;;3.65;1.33;;;32.00;14.70;;;;;;6291917;28;20521;-78
2021/04/05 13:45:40;;;;;;;4.82;1.20;;;32.20;14.40;;;;;;6249349;28;20033;-80
2021/04/05 13:48:46;;;;;;;2.75;1.10;;;32.20;14.20;;;;;;6249653;28;20032;-79
2021/04/05 13:51:50;;;;;;;2.85;1.20;;;31.80;14.30;;;;;;6232042;28;20357;-78
2021/04/05 13:54:57;;;;;;;3.90;1.55;;;31.30;14.60;;;;;;6229634;28;20037;-78
2021/04/05 13:58:11;;;;;;;2.65;1.38;;;30.80;15.00;;;;;;6230949;28;20091;-79
2021/04/05 14:01:15;;;;;;;5.07;1.17;;;29.90;15.50;;;;;;6228472;28;20124;-78
2021/04/05 14:04:19;;;;;;;6.53;1.20;;;29.30;16.00;;;;;;6240261;28;20061;-78
2021/04/05 14:07:21;;;;;;;3.22;1.17;;;28.80;16.40;;;;;;6232784;28;21876;-80
2021/04/05 14:10:24;;;;;;;3.95;1.13;;;28.20;16.60;;;;;;6234289;28;20040;-78
2021/04/05 14:13:33;;;;;;;2.70;1.30;;;27.70;16.80;;;;;;6214801;28;20037;-78
2021/04/05 14:16:37;;;;;;;3.30;1.23;;;27.20;17.20;;;;;;6234768;28;20099;-77
2021/04/05 14:19:44;;;;;;;1.83;0.80;;;26.70;17.50;;;;;;6218821;28;20045;-79
2021/04/05 14:22:55;;;;;;;3.58;0.90;;;26.40;17.80;;;;;;6250408;28;20037;-78
2021/04/05 14:25:58;;;;;;;4.28;0.95;;;26.00;17.70;;;;;;6253268;28;20044;-77
2021/04/05 14:29:01;;;;;;;3.53;1.02;;;25.70;17.90;;;;;;6237265;28;20432;-78
2021/04/05 14:32:07;;;;;;;1.00;0.80;;;25.40;18.40;;;;;;6238822;28;20071;-78
2021/04/05 14:35:10;;;;;;;5.80;1.45;;;25.20;18.60;;;;;;6254358;28;20429;-78
2021/04/05 14:38:21;;;;;;;2.58;1.20;;;25.10;18.70;;;;;;6264764;28;20041;-79
2021/04/05 14:41:29;;;;;;;3.33;1.17;;;25.00;18.70;;;;;;6230396;28;20026;-79
2021/04/05 14:44:48;;;;;;;;;;;24.90;18.60;;;;;;6241570;28;20496;-77
2021/04/05 14:47:58;;;;;;;2.47;1.00;;;24.80;18.70;;;;;;6245395;28;19912;-78
2021/04/05 14:51:03;;;;;;;4.03;1.33;;;24.60;18.70;;;;;;6230214;28;20120;-79
2021/04/05 14:54:08;;;;;;;4.43;1.23;;;24.50;19.00;;;;;;6210627;28;20045;-79
2021/04/05 14:57:16;;;;;;;2.15;1.15;;;24.40;19.10;;;;;;6239880;28;20040;-80
2021/04/05 15:00:26;;;;;;;3.83;1.08;;;24.30;19.20;;;;;;6200319;28;20037;-79
2021/04/05 15:03:31;;;;;;;7.63;1.30;;;24.10;19.40;;;;;;6223063;28;20068;-79
2021/04/05 15:06:50;;;;;;;4.90;1.08;;;24.00;19.40;;;;;;6213972;28;20095;-78
2021/04/05 15:09:58;;;;;;;1.98;1.02;;;24.00;19.60;;;;;;6220946;28;20048;-80
2021/04/05 15:13:01;;;;;;;3.58;1.10;;;24.00;19.60;;;;;;6195571;28;20038;-79
2021/04/05 15:16:15;;;;;;;3.47;1.08;;;24.10;19.70;;;;;;6228592;28;20068;-78
2021/04/05 15:19:25;;;;;;;3.95;1.25;;;24.00;19.80;;;;;;6233362;28;20045;-78
2021/04/05 15:22:27;;;;;;;3.63;1.15;;;24.00;19.80;;;;;;6250970;28;20087;-78
2021/04/05 15:25:37;;;;;;;1.60;0.77;;;24.00;19.80;;;;;;6237946;28;20049;-77
2021/04/05 15:28:41;;;;;;;1.40;0.95;;;23.90;19.60;;;;;;6247100;28;20357;-77
2021/04/05 15:31:42;;;;;;;3.45;1.10;;;23.80;19.70;;;;;;6254658;28;20376;-77
2021/04/05 15:34:44;;;;;;;1.52;0.90;;;23.80;19.80;;;;;;6269807;28;20037;-77
2021/04/05 15:38:06;;;;;;;4.30;1.15;;;23.80;19.90;;;;;;6221737;28;20064;-78
2021/04/05 15:41:14;;;;;;;3.30;1.10;;;23.70;19.90;;;;;;6244036;28;20033;-79
2021/04/05 15:44:22;;;;;;;3.60;1.10;;;23.60;19.90;;;;;;6230262;28;20107;-79
2021/04/05 15:47:44;;;;;;;2.10;1.00;;;23.50;20.00;;;;;;6245642;28;20037;-77
2021/04/05 15:51:03;;;;;;;3.22;0.98;;;23.40;20.00;;;;;;6246645;28;20465;-78
2021/04/05 15:54:05;;;;;;;;;;;23.50;20.10;;;;;;6228008;28;20049;-77
2021/04/05 15:57:25;;;;;;;4.22;1.60;;;23.50;20.10;;;;;;6244202;28;19913;-78
2021/04/05 16:00:36;;;;;;;2.20;1.00;;;23.50;20.20;;;;;;6232737;28;20064;-79
2021/04/05 16:03:50;;;;;;;6.20;0.82;;;23.50;20.30;;;;;;6230935;28;20132;-78
2021/04/05 16:07:13;;;;;;;3.55;0.98;;;23.50;19.70;;;;;;6231557;28;20025;-77
2021/04/05 16:10:19;;;;;;;1.13;0.88;;;23.60;19.90;;;;;;6244674;28;20025;-78
2021/04/05 16:14:01;;;;;;;2.65;0.95;;;23.90;19.20;;;;;;6248544;28;20124;-78
2021/04/05 16:17:10;;;;;;;4.32;0.95;;;24.90;18.50;;;;;;6144345;29;20039;-77
2021/04/05 16:20:13;;;;;;;2.70;1.20;;;25.90;17.60;;;;;;6129535;29;20067;-78
2021/04/05 16:23:28;;;;;;;4.32;1.30;;;26.60;17.00;;;;;;6131471;29;20043;-79
2021/04/05 16:26:32;;;;;;;1.08;0.82;;;27.20;16.50;;;;;;6135055;29;20102;-77
2021/04/05 16:29:36;;;;;;;1.88;1.15;;;27.20;16.30;;;;;;6111339;29;20047;-79
2021/04/05 16:32:45;;;;;;;2.35;1.08;;;26.80;16.60;;;;;;6133929;29;20097;-78